createdAt,value
2018-09-13T00:00:48.967Z,71.60
2018-09-13T00:03:18.484Z,71.47
2018-09-13T00:05:48.104Z,71.84
2018-09-13T00:08:17.710Z,71.36
2018-09-13T00:10:47.277Z,71.40
2018-09-13T00:13:16.854Z,71.74
2018-09-13T00:15:46.514Z,71.45
2018-09-13T00:18:16.002Z,71.66
2018-09-13T00:20:45.508Z,72.08
2018-09-13T00:23:15.034Z,72.20
2018-09-13T00:25:44.559Z,71.74
2018-09-13T00:28:14.073Z,72.30
2018-09-13T00:30:43.658Z,72.25
2018-09-13T00:33:13.384Z,72.10
2018-09-13T00:35:42.912Z,72.06
2018-09-13T00:38:12.615Z,72.36
2018-09-13T00:40:42.165Z,72.24
2018-09-13T00:43:11.845Z,72.21
2018-09-13T00:45:41.453Z,71.85
2018-09-13T00:48:10.973Z,71.77
2018-09-13T00:50:40.524Z,71.76
2018-09-13T00:53:10.104Z,71.49
2018-09-13T00:55:39.740Z,71.73
2018-09-13T00:58:09.284Z,71.54
2018-09-13T01:00:38.878Z,71.84
2018-09-13T01:03:13.637Z,72.16
2018-09-13T01:05:43.317Z,72.00
2018-09-13T01:08:12.933Z,72.59
2018-09-13T01:10:42.542Z,72.14
2018-09-13T01:13:12.150Z,72.12
2018-09-13T01:15:41.742Z,72.90
2018-09-13T01:18:12.211Z,72.70
2018-09-13T01:20:42.113Z,72.86
2018-09-13T01:23:11.710Z,72.59
2018-09-13T01:25:41.285Z,72.76
2018-09-13T01:28:11.182Z,73.17
2018-09-13T01:30:40.733Z,73.46
2018-09-13T01:33:10.358Z,73.96
2018-09-13T01:35:40.233Z,74.64
2018-09-13T01:38:09.886Z,74.41
2018-09-13T01:40:39.530Z,75.66
2018-09-13T01:43:09.137Z,75.79
2018-09-13T01:45:38.684Z,76.48
2018-09-13T01:48:08.296Z,76.14
2018-09-13T01:50:37.870Z,76.36
2018-09-13T01:53:07.430Z,76.23
2018-09-13T01:55:36.998Z,76.15
2018-09-13T01:58:07.210Z,75.95
2018-09-13T02:00:36.789Z,76.23
2018-09-13T02:03:06.636Z,75.71
2018-09-13T02:05:36.262Z,76.11
2018-09-13T02:08:06.194Z,75.85
2018-09-13T02:10:35.799Z,75.79
2018-09-13T02:13:05.411Z,75.60
2018-09-13T02:15:34.984Z,75.13
2018-09-13T02:18:04.586Z,75.20
2018-09-13T02:20:34.174Z,75.56
2018-09-13T02:23:03.766Z,75.09
2018-09-13T02:25:33.370Z,75.15
2018-09-13T02:28:03.171Z,75.18
2018-09-13T02:30:32.744Z,74.43
2018-09-13T02:33:02.583Z,74.71
2018-09-13T02:35:32.221Z,74.28
2018-09-13T02:38:01.980Z,74.44
2018-09-13T02:40:31.634Z,73.94
2018-09-13T02:43:01.210Z,74.32
2018-09-13T02:45:30.768Z,74.53
2018-09-13T02:48:00.438Z,74.03
2018-09-13T02:50:30.030Z,74.02
2018-09-13T02:52:59.665Z,74.60
2018-09-13T02:55:29.246Z,74.26
2018-09-13T02:57:58.925Z,74.14
2018-09-13T03:00:28.473Z,74.65
2018-09-13T03:02:58.054Z,74.47
2018-09-13T03:05:27.641Z,74.57
2018-09-13T03:07:57.186Z,74.43
2018-09-13T03:10:26.794Z,75.10
2018-09-13T03:12:56.578Z,74.77
2018-09-13T03:15:26.205Z,75.01
2018-09-13T03:17:55.827Z,75.06
2018-09-13T03:20:25.646Z,74.96
2018-09-13T03:22:55.425Z,74.99
2018-09-13T03:25:25.062Z,75.59
2018-09-13T03:27:54.662Z,75.65
2018-09-13T03:30:24.262Z,76.08
2018-09-13T03:32:53.990Z,76.36
2018-09-13T03:35:23.640Z,76.48
2018-09-13T03:37:53.469Z,76.75
2018-09-13T03:40:23.220Z,76.56
2018-09-13T03:42:52.797Z,76.88
2018-09-13T03:45:22.402Z,76.16
2018-09-13T03:47:51.994Z,76.43
2018-09-13T03:50:21.618Z,76.61
2018-09-13T03:52:51.191Z,77.54
2018-09-13T03:55:20.834Z,77.61
2018-09-13T03:57:50.425Z,77.67
2018-09-13T04:00:20.018Z,77.64
2018-09-13T04:02:49.637Z,78.55
2018-09-13T04:05:19.242Z,78.50
2018-09-13T04:07:48.794Z,79.20
2018-09-13T04:10:18.370Z,78.94
2018-09-13T04:12:48.526Z,78.70
2018-09-13T04:15:18.514Z,78.38
2018-09-13T04:17:48.468Z,78.31
2018-09-13T04:20:18.228Z,78.52
2018-09-13T04:22:47.864Z,78.57
2018-09-13T04:25:17.374Z,78.34
2018-09-13T04:27:47.068Z,78.46
2018-09-13T04:30:16.611Z,78.23
2018-09-13T04:32:46.327Z,78.27
2018-09-13T04:35:16.030Z,78.72
2018-09-13T04:37:45.593Z,78.71
2018-09-13T04:40:15.183Z,78.83
2018-09-13T04:42:44.794Z,78.75
2018-09-13T04:45:14.416Z,78.52
2018-09-13T04:47:43.971Z,79.07
2018-09-13T04:50:13.608Z,78.86
2018-09-13T04:52:43.237Z,79.16
2018-09-13T04:55:13.005Z,78.71
2018-09-13T04:57:42.590Z,79.14
2018-09-13T05:00:12.211Z,78.74
2018-09-13T05:02:41.896Z,79.27
2018-09-13T05:05:11.481Z,79.31
2018-09-13T05:07:41.118Z,79.03
2018-09-13T05:10:10.774Z,79.57
2018-09-13T05:12:40.635Z,79.40
2018-09-13T05:15:10.210Z,79.58
2018-09-13T05:17:39.922Z,79.01
2018-09-13T05:20:09.549Z,79.19
2018-09-13T05:22:39.130Z,79.15
2018-09-13T05:25:08.879Z,79.51
2018-09-13T05:27:38.591Z,79.44
2018-09-13T05:30:08.909Z,78.77
2018-09-13T05:32:38.477Z,79.21
2018-09-13T05:35:08.417Z,78.55
2018-09-13T05:37:38.041Z,78.59
2018-09-13T05:40:07.680Z,78.58
2018-09-13T05:42:37.249Z,78.71
2018-09-13T05:45:06.936Z,78.74
2018-09-13T05:47:36.521Z,78.86
2018-09-13T05:50:06.516Z,78.68
2018-09-13T05:52:36.101Z,79.03
2018-09-13T05:55:05.765Z,79.15
2018-09-13T05:57:35.517Z,79.25
2018-09-13T06:00:06.023Z,79.32
2018-09-13T06:02:35.682Z,79.99
2018-09-13T06:05:05.482Z,79.61
2018-09-13T06:07:35.009Z,79.69
2018-09-13T06:10:04.661Z,80.03
2018-09-13T06:12:34.225Z,79.92
2018-09-13T06:15:03.774Z,79.97
2018-09-13T06:17:33.330Z,79.24
2018-09-13T06:20:02.886Z,78.53
2018-09-13T06:22:32.499Z,78.37
2018-09-13T06:25:02.140Z,78.03
2018-09-13T06:27:31.733Z,77.94
2018-09-13T06:30:01.290Z,76.94
2018-09-13T06:32:30.866Z,77.00
2018-09-13T06:35:00.577Z,77.12
2018-09-13T06:37:30.286Z,77.04
2018-09-13T06:39:59.980Z,76.02
2018-09-13T06:42:29.809Z,75.90
2018-09-13T06:45:06.962Z,74.84
2018-09-13T06:47:37.229Z,74.37
2018-09-13T06:50:07.240Z,74.51
2018-09-13T06:52:37.019Z,73.79
2018-09-13T06:55:06.984Z,73.60
2018-09-13T06:57:36.693Z,73.18
2018-09-13T07:00:07.001Z,73.33
2018-09-13T07:02:36.693Z,72.47
2018-09-13T07:05:06.928Z,71.92
2018-09-13T07:07:36.653Z,71.82
2018-09-13T07:10:06.356Z,72.12
2018-09-13T07:12:36.092Z,71.82
2018-09-13T07:15:05.827Z,71.70
2018-09-13T07:17:35.461Z,71.41
2018-09-13T07:20:05.337Z,71.57
2018-09-13T07:22:35.062Z,71.88
2018-09-13T07:25:05.245Z,70.92
2018-09-13T07:27:34.892Z,71.49
2018-09-13T07:30:05.294Z,71.73
2018-09-13T07:32:34.925Z,72.27
2018-09-13T07:35:04.640Z,73.62
2018-09-13T07:37:34.325Z,74.52
2018-09-13T07:40:04.021Z,75.26
2018-09-13T07:42:33.758Z,75.87
2018-09-13T07:45:03.540Z,76.54
2018-09-13T07:47:33.204Z,77.96
2018-09-13T07:50:02.892Z,78.35
2018-09-13T07:52:32.608Z,78.50
2018-09-13T07:55:02.272Z,79.33
2018-09-13T07:57:31.925Z,79.16
2018-09-13T08:00:01.617Z,80.20
2018-09-13T08:02:31.384Z,80.23
2018-09-13T08:05:01.263Z,81.26
2018-09-13T08:07:31.130Z,81.55
2018-09-13T08:10:00.763Z,81.91
2018-09-13T08:12:30.449Z,82.24
2018-09-13T08:15:00.281Z,82.74
2018-09-13T08:17:29.971Z,82.42
2018-09-13T08:19:59.731Z,81.30
2018-09-13T08:22:29.442Z,80.84
2018-09-13T08:24:59.125Z,79.91
2018-09-13T08:27:28.914Z,79.10
2018-09-13T08:29:59.028Z,78.86
2018-09-13T08:32:28.664Z,78.94
2018-09-13T08:34:58.616Z,78.07
2018-09-13T08:37:28.607Z,78.10
2018-09-13T08:39:58.312Z,78.26
2018-09-13T08:42:28.174Z,78.45
2018-09-13T08:44:58.008Z,78.80
2018-09-13T08:47:27.982Z,78.75
2018-09-13T08:49:57.642Z,78.17
2018-09-13T08:52:27.776Z,78.08
2018-09-13T08:54:57.249Z,78.00
2018-09-13T08:57:26.957Z,78.15
2018-09-13T08:59:56.624Z,78.26
2018-09-13T09:02:26.287Z,78.30
2018-09-13T09:04:56.112Z,78.57
2018-09-13T09:07:25.833Z,78.79
2018-09-13T09:09:55.589Z,79.23
2018-09-13T09:12:25.296Z,79.34
2018-09-13T09:14:55.154Z,79.54
2018-09-13T09:17:24.795Z,78.65
2018-09-13T09:19:54.577Z,79.52
2018-09-13T09:22:24.224Z,79.39
2018-09-13T09:24:54.589Z,79.08
2018-09-13T09:27:24.609Z,79.39
2018-09-13T09:29:54.458Z,78.72
2018-09-13T09:32:24.374Z,79.23
2018-09-13T09:34:54.063Z,79.37
2018-09-13T09:37:23.974Z,78.80
2018-09-13T09:39:53.662Z,78.87
2018-09-13T09:42:23.256Z,79.11
2018-09-13T09:44:52.976Z,78.91
2018-09-13T09:47:22.698Z,78.29
2018-09-13T09:49:52.397Z,77.97
2018-09-13T09:52:22.075Z,77.98
2018-09-13T09:54:51.870Z,77.83
2018-09-13T09:57:21.597Z,76.99
2018-09-13T09:59:51.323Z,76.77
2018-09-13T10:02:23.564Z,76.15
2018-09-13T10:04:53.282Z,76.45
2018-09-13T10:07:22.961Z,75.95
2018-09-13T10:09:52.701Z,75.55
2018-09-13T10:12:22.444Z,75.41
2018-09-13T10:22:12.799Z,75.62
2018-09-13T10:24:47.601Z,75.19
2018-09-13T10:27:22.516Z,75.74
2018-09-13T10:29:57.286Z,75.45
2018-09-13T10:32:32.165Z,75.54
2018-09-13T10:36:06.768Z,75.77
2018-09-13T10:38:41.608Z,75.27
2018-09-13T10:41:16.504Z,74.95
2018-09-13T10:43:51.460Z,75.21
2018-09-13T10:46:26.684Z,75.54
2018-09-13T10:49:01.573Z,74.65
2018-09-13T10:51:36.311Z,74.88
2018-09-13T10:54:12.036Z,73.37
2018-09-13T10:56:42.106Z,73.95
2018-09-13T10:59:11.905Z,73.82
2018-09-13T11:01:41.621Z,73.89
2018-09-13T11:04:11.349Z,73.33
2018-09-13T11:06:41.012Z,73.47
2018-09-13T11:09:14.675Z,73.35
2018-09-13T11:11:44.890Z,73.23
2018-09-13T11:14:18.798Z,72.78
2018-09-13T11:16:48.564Z,72.21
2018-09-13T11:19:18.631Z,71.84
2018-09-13T11:21:48.344Z,72.04
2018-09-13T11:24:18.091Z,71.13
2018-09-13T11:26:47.814Z,70.73
2018-09-13T11:29:17.680Z,70.78
2018-09-13T11:31:47.327Z,69.60
2018-09-13T11:34:16.997Z,69.38
2018-09-13T11:36:46.830Z,69.16
2018-09-13T11:39:16.573Z,68.67
2018-09-13T11:41:46.234Z,68.84
2018-09-13T11:44:15.988Z,68.90
2018-09-13T11:46:45.676Z,69.19
2018-09-13T11:49:15.352Z,68.71
2018-09-13T11:51:45.181Z,67.74
2018-09-13T11:54:14.846Z,67.03
2018-09-13T11:56:44.699Z,66.93
2018-09-13T11:59:14.469Z,66.09
2018-09-13T12:01:44.133Z,66.00
2018-09-13T12:04:13.888Z,65.47
2018-09-13T12:06:43.749Z,65.10
2018-09-13T12:09:14.919Z,63.91
2018-09-13T12:11:44.640Z,63.71
2018-09-13T12:14:14.276Z,63.71
2018-09-13T12:16:44.039Z,63.38
2018-09-13T12:19:13.848Z,63.40
2018-09-13T12:21:43.487Z,63.31
2018-09-13T12:24:13.273Z,63.90
2018-09-13T12:26:42.984Z,64.08
2018-09-13T12:29:12.636Z,64.59
2018-09-13T12:31:42.319Z,64.46
2018-09-13T12:34:12.047Z,64.49
2018-09-13T12:36:41.692Z,63.94
2018-09-13T12:39:12.496Z,63.74
2018-09-13T12:41:42.774Z,63.87
2018-09-13T12:44:12.607Z,63.09
2018-09-13T12:46:42.404Z,62.78
2018-09-13T12:49:13.337Z,62.88
2018-09-13T12:51:43.014Z,62.69
2018-09-13T12:54:12.732Z,61.92
2018-09-13T12:56:42.634Z,61.84
2018-09-13T12:59:12.218Z,62.00
2018-09-13T13:01:41.865Z,61.60
2018-09-13T13:04:11.565Z,61.65
2018-09-13T13:06:41.342Z,61.09
2018-09-13T13:09:11.409Z,61.36
2018-09-13T13:11:41.241Z,61.21
2018-09-13T13:14:11.124Z,60.98
2018-09-13T13:16:40.878Z,61.07
2018-09-13T13:19:10.563Z,61.98
2018-09-13T13:21:40.227Z,61.26
2018-09-13T13:24:09.885Z,61.73
2018-09-13T13:26:39.593Z,61.93
2018-09-13T13:29:09.469Z,61.85
2018-09-13T13:31:39.204Z,61.62
2018-09-13T13:34:08.957Z,62.07
2018-09-13T13:36:38.674Z,62.54
2018-09-13T13:39:10.173Z,61.95
2018-09-13T13:41:39.874Z,62.47
2018-09-13T13:44:09.556Z,62.63
2018-09-13T13:46:39.785Z,62.55
2018-09-13T13:49:09.480Z,62.47
2018-09-13T13:51:39.201Z,62.63
2018-09-13T13:54:09.078Z,63.01
2018-09-13T13:56:38.732Z,62.62
2018-09-13T13:59:09.312Z,63.25
2018-09-13T14:01:39.024Z,63.07
2018-09-13T14:04:08.716Z,62.33
2018-09-13T14:06:38.404Z,62.37
2018-09-13T14:09:12.520Z,62.10
2018-09-13T14:11:42.199Z,62.30
2018-09-13T14:14:11.840Z,62.81
2018-09-13T14:16:41.648Z,63.48
2018-09-13T14:19:11.450Z,63.05
2018-09-13T14:21:41.185Z,63.19
2018-09-13T14:24:10.903Z,63.64
2018-09-13T14:26:40.599Z,63.52
2018-09-13T14:29:10.245Z,63.53
2018-09-13T14:31:39.941Z,63.96
2018-09-13T14:34:09.834Z,63.13
2018-09-13T14:36:39.694Z,63.18
2018-09-13T14:39:11.074Z,63.54
2018-09-13T14:41:41.212Z,64.01
2018-09-13T14:44:10.992Z,63.39
2018-09-13T14:46:40.724Z,63.20
2018-09-13T14:49:10.475Z,63.28
2018-09-13T14:51:40.196Z,63.44
2018-09-13T14:54:09.937Z,63.00
2018-09-13T14:56:39.734Z,64.17
2018-09-13T14:59:09.618Z,64.27
2018-09-13T15:01:39.543Z,64.15
2018-09-13T15:04:09.259Z,64.29
2018-09-13T15:06:38.954Z,64.53
2018-09-13T15:09:12.357Z,64.46
2018-09-13T15:11:42.098Z,64.18
2018-09-13T15:14:11.793Z,65.02
2018-09-13T15:16:41.495Z,64.77
2018-09-13T15:19:11.148Z,64.80
2018-09-13T15:21:40.827Z,65.60
2018-09-13T15:24:10.580Z,66.27
2018-09-13T15:26:40.311Z,66.40
2018-09-13T15:29:10.071Z,67.14
2018-09-13T15:31:39.929Z,67.18
2018-09-13T15:34:09.578Z,67.61
2018-09-13T15:36:39.295Z,67.64
2018-09-13T15:39:12.011Z,68.63
2018-09-13T15:41:41.797Z,68.96
2018-09-13T15:44:11.531Z,71.04
2018-09-13T15:46:41.485Z,73.33
2018-09-13T15:49:11.172Z,75.11
2018-09-13T15:51:41.233Z,76.80
2018-09-13T15:54:10.973Z,77.17
2018-09-13T15:56:40.611Z,78.95
2018-09-13T15:59:10.393Z,79.45
2018-09-13T16:01:40.160Z,79.30
2018-09-13T16:04:09.866Z,79.57
2018-09-13T16:06:39.540Z,80.89
2018-09-13T16:09:10.177Z,81.77
2018-09-13T16:11:39.838Z,82.34
2018-09-13T16:14:09.492Z,82.89
2018-09-13T16:16:39.544Z,83.73
2018-09-13T16:19:09.688Z,84.91
2018-09-13T16:21:39.478Z,85.22
2018-09-13T16:24:09.349Z,85.87
2018-09-13T16:26:39.064Z,86.43
2018-09-13T16:29:08.845Z,86.52
2018-09-13T16:31:38.847Z,86.65
2018-09-13T16:34:08.606Z,87.22
2018-09-13T16:36:44.789Z,87.41
2018-09-13T16:39:27.648Z,87.84
2018-09-13T16:42:02.359Z,88.47
2018-09-13T16:44:37.184Z,88.29
2018-09-13T16:47:12.120Z,88.58
2018-09-13T16:49:41.737Z,88.95
2018-09-13T16:52:11.425Z,89.32
2018-09-13T16:54:41.112Z,88.96
2018-09-13T16:57:10.767Z,89.11
2018-09-13T16:59:40.460Z,89.27
2018-09-13T17:02:10.171Z,88.86
2018-09-13T17:04:39.839Z,89.14
2018-09-13T17:07:09.556Z,88.79
2018-09-13T17:09:39.456Z,89.00
2018-09-13T17:12:09.360Z,88.64
2018-09-13T17:14:39.193Z,89.01
2018-09-13T17:17:08.869Z,88.98
2018-09-13T17:19:38.537Z,89.20
2018-09-13T17:22:08.691Z,88.76
2018-09-13T17:24:38.425Z,88.99
2018-09-13T17:27:08.186Z,88.75
2018-09-13T17:29:37.920Z,88.27
2018-09-13T17:32:07.618Z,88.82
2018-09-13T17:34:37.307Z,88.72
2018-09-13T17:37:07.613Z,89.52
2018-09-13T17:39:37.434Z,89.38
2018-09-13T17:42:07.398Z,89.42
2018-09-13T17:44:37.097Z,89.79
2018-09-13T17:47:06.811Z,89.54
2018-09-13T17:49:36.460Z,89.17
2018-09-13T17:52:06.186Z,89.17
2018-09-13T17:54:35.876Z,89.38
2018-09-13T17:57:05.533Z,89.65
2018-09-13T17:59:35.217Z,90.23
2018-09-13T18:02:04.905Z,89.61
2018-09-13T18:04:34.744Z,89.88
2018-09-13T18:07:04.436Z,89.61
2018-09-13T18:09:34.283Z,89.26
2018-09-13T18:12:03.925Z,89.24
2018-09-13T18:14:33.611Z,89.55
2018-09-13T18:17:03.309Z,89.87
2018-09-13T18:19:33.445Z,89.40
2018-09-13T18:22:03.572Z,89.94
2018-09-13T18:24:33.888Z,89.97
2018-09-13T18:27:03.552Z,89.30
2018-09-13T18:29:33.261Z,89.15
2018-09-13T18:32:02.993Z,89.29
2018-09-13T18:34:32.660Z,89.74
2018-09-13T18:37:02.494Z,89.41
2018-09-13T18:39:32.194Z,89.75
2018-09-13T18:42:08.536Z,90.61
2018-09-13T18:44:38.271Z,90.03
2018-09-13T18:47:08.116Z,91.25
2018-09-13T18:49:37.807Z,91.56
2018-09-13T18:52:08.086Z,91.10
2018-09-13T18:54:37.702Z,91.28
2018-09-13T18:57:07.389Z,91.37
2018-09-13T18:59:37.436Z,91.48
2018-09-13T19:02:07.268Z,92.23
2018-09-13T19:04:36.940Z,92.54
2018-09-13T19:07:06.648Z,92.27
2018-09-13T19:09:36.334Z,92.20
2018-09-13T19:12:06.295Z,92.29
2018-09-13T19:14:36.169Z,92.63
2018-09-13T19:17:06.093Z,93.04
2018-09-13T19:19:35.781Z,92.98
2018-09-13T19:22:05.468Z,93.28
2018-09-13T19:24:35.108Z,93.21
2018-09-13T19:27:04.789Z,93.47
2018-09-13T19:29:34.634Z,93.50
2018-09-13T19:32:04.289Z,93.63
2018-09-13T19:34:33.989Z,93.63
2018-09-13T19:37:03.742Z,93.40
2018-09-13T19:39:33.384Z,94.29
2018-09-13T19:42:03.114Z,94.42
2018-09-13T19:44:33.004Z,94.18
2018-09-13T19:47:02.636Z,94.66
2018-09-13T19:49:32.296Z,94.39
2018-09-13T19:52:02.124Z,94.54
2018-09-13T19:54:31.884Z,94.96
2018-09-13T19:57:01.558Z,95.00
2018-09-13T19:59:31.361Z,95.21
2018-09-13T20:02:01.026Z,95.22
2018-09-13T20:04:30.972Z,95.13
2018-09-13T20:07:00.630Z,95.22
2018-09-13T20:09:30.276Z,94.88
2018-09-13T20:12:00.047Z,94.49
2018-09-13T20:14:29.705Z,94.52
2018-09-13T20:16:59.364Z,94.05
2018-09-13T20:19:29.017Z,94.92
2018-09-13T20:21:58.704Z,94.95
2018-09-13T20:24:28.504Z,94.72
2018-09-13T20:26:58.216Z,94.13
2018-09-13T20:29:27.898Z,94.36
2018-09-13T20:31:57.557Z,94.51
2018-09-13T20:34:27.247Z,94.33
2018-09-13T20:36:57.022Z,94.67
2018-09-13T20:39:26.739Z,94.23
2018-09-13T20:41:56.381Z,94.10
2018-09-13T20:44:26.244Z,94.00
2018-09-13T20:46:55.894Z,94.13
2018-09-13T20:49:25.552Z,93.99
2018-09-13T20:51:55.568Z,93.86
2018-09-13T20:54:25.284Z,94.00
2018-09-13T20:56:55.029Z,93.54
2018-09-13T20:59:24.804Z,93.89
2018-09-13T21:01:54.472Z,93.47
2018-09-13T21:04:24.189Z,93.30
2018-09-13T21:06:53.872Z,93.05
2018-09-13T21:09:23.616Z,93.11
2018-09-13T21:11:53.313Z,92.95
2018-09-13T21:14:23.078Z,92.91
2018-09-13T21:16:52.961Z,93.06
2018-09-13T21:19:22.618Z,93.25
2018-09-13T21:21:52.396Z,92.86
2018-09-13T21:24:22.036Z,92.82
2018-09-13T21:26:52.056Z,93.28
2018-09-13T21:29:21.729Z,93.03
2018-09-13T21:31:51.325Z,92.37
2018-09-13T21:34:20.973Z,92.39
2018-09-13T21:36:50.764Z,93.24
2018-09-13T21:39:20.397Z,92.95
2018-09-13T21:41:50.125Z,92.23
2018-09-13T21:44:19.800Z,92.41
2018-09-13T21:46:49.448Z,92.96
2018-09-13T21:49:19.080Z,92.98
2018-09-13T21:51:48.821Z,92.76
2018-09-13T21:54:18.452Z,92.72
2018-09-13T21:56:48.100Z,92.24
2018-09-13T21:59:17.882Z,92.35
2018-09-13T22:01:47.488Z,92.68
2018-09-13T22:04:17.132Z,92.75
2018-09-13T22:06:46.985Z,92.99
2018-09-13T22:09:17.191Z,93.08
2018-09-13T22:11:46.843Z,92.96
2018-09-13T22:14:16.732Z,92.95
2018-09-13T22:16:46.428Z,93.53
2018-09-13T22:19:16.096Z,92.84
2018-09-13T22:21:45.858Z,92.91
2018-09-13T22:24:15.512Z,92.68
2018-09-13T22:26:45.152Z,93.14
2018-09-13T22:29:14.917Z,92.83
2018-09-13T22:31:44.545Z,93.22
2018-09-13T22:34:14.193Z,92.55
2018-09-13T22:36:43.918Z,92.34
2018-09-13T22:39:13.533Z,92.15
2018-09-13T22:41:43.204Z,91.89
2018-09-13T22:44:12.882Z,92.11
2018-09-13T22:46:42.599Z,91.95
2018-09-13T22:49:12.272Z,91.36
2018-09-13T22:51:41.919Z,91.54
2018-09-13T22:54:11.549Z,91.53
2018-09-13T22:56:41.294Z,91.88
2018-09-13T22:59:10.961Z,92.30
2018-09-13T23:01:40.596Z,92.25
2018-09-13T23:04:10.248Z,92.61
2018-09-13T23:06:40.672Z,92.32
2018-09-13T23:09:11.918Z,92.01
2018-09-13T23:11:41.628Z,92.24
2018-09-13T23:14:11.375Z,92.05
2018-09-13T23:16:41.050Z,92.23
2018-09-13T23:19:10.764Z,92.62
2018-09-13T23:21:40.517Z,92.17
2018-09-13T23:24:10.141Z,92.00
2018-09-13T23:26:39.891Z,92.26
2018-09-13T23:29:09.535Z,92.52
2018-09-13T23:31:39.177Z,92.23
2018-09-13T23:34:08.972Z,91.85
2018-09-13T23:36:38.600Z,92.38
2018-09-13T23:39:10.320Z,91.61
2018-09-13T23:41:40.856Z,91.76
2018-09-13T23:44:10.541Z,91.30
2018-09-13T23:46:40.220Z,91.80
2018-09-13T23:49:09.821Z,91.51
2018-09-13T23:51:39.451Z,91.50
2018-09-13T23:54:09.120Z,90.63
2018-09-13T23:56:38.749Z,91.21
2018-09-13T23:59:08.381Z,90.36
